sensor_id;sensor_type;location;lat;lon;timestamp;temperature;humidity
42019;DHT22;27703;51.980;5.848;2022-11-20T00:02:01;1.00;99.90
42019;DHT22;27703;51.980;5.848;2022-11-20T00:04:26;1.00;99.90
42019;DHT22;27703;51.980;5.848;2022-11-20T00:06:52;1.00;99.90
42019;DHT22;27703;51.980;5.848;2022-11-20T00:09:17;1.00;99.90
42019;DHT22;27703;51.980;5.848;2022-11-20T00:11:43;1.00;99.90
42019;DHT22;27703;51.980;5.848;2022-11-20T00:14:09;1.00;99.90
42019;DHT22;27703;51.980;5.848;2022-11-20T00:16:35;1.00;99.90
42019;DHT22;27703;51.980;5.848;2022-11-20T00:19:01;1.10;99.90
42019;DHT22;27703;51.980;5.848;2022-11-20T00:21:27;1.00;99.90
42019;DHT22;27703;51.980;5.848;2022-11-20T00:23:55;1.10;99.90
42019;DHT22;27703;51.980;5.848;2022-11-20T00:26:22;1.10;99.90
42019;DHT22;27703;51.980;5.848;2022-11-20T00:29:00;1.10;99.90
42019;DHT22;27703;51.980;5.848;2022-11-20T00:31:26;1.10;99.90
42019;DHT22;27703;51.980;5.848;2022-11-20T00:33:53;1.00;99.90
42019;DHT22;27703;51.980;5.848;2022-11-20T00:36:20;0.90;99.90
42019;DHT22;27703;51.980;5.848;2022-11-20T00:38:47;0.90;99.90
42019;DHT22;27703;51.980;5.848;2022-11-20T00:41:16;0.80;99.90
42019;DHT22;27703;51.980;5.848;2022-11-20T00:43:42;0.70;99.90
42019;DHT22;27703;51.980;5.848;2022-11-20T00:46:15;0.70;99.90
42019;DHT22;27703;51.980;5.848;2022-11-20T00:48:42;0.70;99.90
42019;DHT22;27703;51.980;5.848;2022-11-20T00:51:08;0.80;99.90
42019;DHT22;27703;51.980;5.848;2022-11-20T00:53:33;0.80;99.90
42019;DHT22;27703;51.980;5.848;2022-11-20T00:56:04;0.80;99.90
42019;DHT22;27703;51.980;5.848;2022-11-20T00:58:32;0.90;99.90
42019;DHT22;27703;51.980;5.848;2022-11-20T01:01:05;0.90;99.90
42019;DHT22;27703;51.980;5.848;2022-11-20T01:03:36;0.90;99.90
42019;DHT22;27703;51.980;5.848;2022-11-20T01:06:04;0.80;99.90
42019;DHT22;27703;51.980;5.848;2022-11-20T01:08:31;0.80;99.90
42019;DHT22;27703;51.980;5.848;2022-11-20T01:11:05;0.80;99.90
42019;DHT22;27703;51.980;5.848;2022-11-20T01:13:31;0.80;99.90
42019;DHT22;27703;51.980;5.848;2022-11-20T01:16:14;0.80;99.90
42019;DHT22;27703;51.980;5.848;2022-11-20T01:18:43;0.80;99.90
42019;DHT22;27703;51.980;5.848;2022-11-20T01:21:16;0.80;99.90
42019;DHT22;27703;51.980;5.848;2022-11-20T01:23:43;0.80;99.90
42019;DHT22;27703;51.980;5.848;2022-11-20T01:26:15;0.80;99.90
42019;DHT22;27703;51.980;5.848;2022-11-20T01:28:41;0.80;99.90
42019;DHT22;27703;51.980;5.848;2022-11-20T01:31:18;0.70;99.90
42019;DHT22;27703;51.980;5.848;2022-11-20T01:33:46;0.80;99.90
42019;DHT22;27703;51.980;5.848;2022-11-20T01:36:13;0.80;99.90
42019;DHT22;27703;51.980;5.848;2022-11-20T01:38:39;0.80;99.90
42019;DHT22;27703;51.980;5.848;2022-11-20T01:41:05;0.80;99.90
42019;DHT22;27703;51.980;5.848;2022-11-20T01:43:31;0.80;99.90
42019;DHT22;27703;51.980;5.848;2022-11-20T01:46:18;0.70;99.90
42019;DHT22;27703;51.980;5.848;2022-11-20T01:49:11;0.70;99.90
42019;DHT22;27703;51.980;5.848;2022-11-20T01:51:55;0.70;99.90
42019;DHT22;27703;51.980;5.848;2022-11-20T01:54:32;0.70;99.90
42019;DHT22;27703;51.980;5.848;2022-11-20T01:57:00;0.70;99.90
42019;DHT22;27703;51.980;5.848;2022-11-20T01:59:27;0.60;99.90
42019;DHT22;27703;51.980;5.848;2022-11-20T02:01:54;0.60;99.90
42019;DHT22;27703;51.980;5.848;2022-11-20T02:04:20;0.60;99.90
42019;DHT22;27703;51.980;5.848;2022-11-20T02:09:16;0.60;99.90
42019;DHT22;27703;51.980;5.848;2022-11-20T02:11:42;0.60;99.90
42019;DHT22;27703;51.980;5.848;2022-11-20T02:14:08;0.50;99.90
42019;DHT22;27703;51.980;5.848;2022-11-20T02:16:43;0.50;99.90
42019;DHT22;27703;51.980;5.848;2022-11-20T02:19:26;0.40;99.90
42019;DHT22;27703;51.980;5.848;2022-11-20T02:24:26;0.40;99.90
42019;DHT22;27703;51.980;5.848;2022-11-20T02:29:40;0.40;99.90
42019;DHT22;27703;51.980;5.848;2022-11-20T02:32:27;0.40;99.90
42019;DHT22;27703;51.980;5.848;2022-11-20T02:34:54;0.40;99.90
42019;DHT22;27703;51.980;5.848;2022-11-20T02:37:20;0.40;99.90
42019;DHT22;27703;51.980;5.848;2022-11-20T02:39:48;0.40;99.90
42019;DHT22;27703;51.980;5.848;2022-11-20T02:42:14;0.30;99.90
42019;DHT22;27703;51.980;5.848;2022-11-20T02:44:40;0.10;99.90
42019;DHT22;27703;51.980;5.848;2022-11-20T02:47:05;0.10;99.90
42019;DHT22;27703;51.980;5.848;2022-11-20T02:49:31;0.10;99.90
42019;DHT22;27703;51.980;5.848;2022-11-20T02:51:57;0.20;99.90
42019;DHT22;27703;51.980;5.848;2022-11-20T02:54:23;0.10;99.90
42019;DHT22;27703;51.980;5.848;2022-11-20T02:56:48;0.20;99.90
42019;DHT22;27703;51.980;5.848;2022-11-20T02:59:14;0.20;99.90
42019;DHT22;27703;51.980;5.848;2022-11-20T03:01:39;0.10;99.90
42019;DHT22;27703;51.980;5.848;2022-11-20T03:04:05;0.20;99.90
42019;DHT22;27703;51.980;5.848;2022-11-20T03:06:31;0.10;99.90
42019;DHT22;27703;51.980;5.848;2022-11-20T03:08:56;0.20;99.90
42019;DHT22;27703;51.980;5.848;2022-11-20T03:11:22;0.20;99.90
42019;DHT22;27703;51.980;5.848;2022-11-20T03:13:47;0.20;99.90
42019;DHT22;27703;51.980;5.848;2022-11-20T03:16:18;0.20;99.90
42019;DHT22;27703;51.980;5.848;2022-11-20T03:18:44;0.20;99.90
42019;DHT22;27703;51.980;5.848;2022-11-20T03:21:11;0.20;99.90
42019;DHT22;27703;51.980;5.848;2022-11-20T03:23:38;0.20;99.90
42019;DHT22;27703;51.980;5.848;2022-11-20T03:26:09;0.20;99.90
42019;DHT22;27703;51.980;5.848;2022-11-20T03:28:35;0.20;99.90
42019;DHT22;27703;51.980;5.848;2022-11-20T03:31:12;0.20;99.90
42019;DHT22;27703;51.980;5.848;2022-11-20T03:33:39;0.20;99.90
42019;DHT22;27703;51.980;5.848;2022-11-20T03:36:07;0.20;99.90
42019;DHT22;27703;51.980;5.848;2022-11-20T03:38:33;0.20;99.90
42019;DHT22;27703;51.980;5.848;2022-11-20T03:41:04;0.10;99.90
42019;DHT22;27703;51.980;5.848;2022-11-20T03:43:30;0.00;99.90
42019;DHT22;27703;51.980;5.848;2022-11-20T03:45:55;0.00;99.90
42019;DHT22;27703;51.980;5.848;2022-11-20T03:48:21;0.00;99.90
42019;DHT22;27703;51.980;5.848;2022-11-20T03:50:47;-0.10;99.90
42019;DHT22;27703;51.980;5.848;2022-11-20T03:53:14;-0.20;99.90
42019;DHT22;27703;51.980;5.848;2022-11-20T03:55:39;-0.20;99.90
42019;DHT22;27703;51.980;5.848;2022-11-20T03:58:05;-0.20;99.90
42019;DHT22;27703;51.980;5.848;2022-11-20T04:00:30;-0.30;99.90
42019;DHT22;27703;51.980;5.848;2022-11-20T04:03:00;-0.40;99.90
42019;DHT22;27703;51.980;5.848;2022-11-20T04:05:25;-0.40;99.90
42019;DHT22;27703;51.980;5.848;2022-11-20T04:07:51;-0.40;99.90
42019;DHT22;27703;51.980;5.848;2022-11-20T04:10:16;-0.40;99.90
42019;DHT22;27703;51.980;5.848;2022-11-20T04:12:42;-0.30;99.90
42019;DHT22;27703;51.980;5.848;2022-11-20T04:15:08;-0.30;99.90
42019;DHT22;27703;51.980;5.848;2022-11-20T04:17:33;-0.30;99.90
42019;DHT22;27703;51.980;5.848;2022-11-20T04:20:00;-0.30;99.90
42019;DHT22;27703;51.980;5.848;2022-11-20T04:22:25;-0.30;99.90
42019;DHT22;27703;51.980;5.848;2022-11-20T04:24:51;-0.30;99.90
42019;DHT22;27703;51.980;5.848;2022-11-20T04:27:16;-0.30;99.90
42019;DHT22;27703;51.980;5.848;2022-11-20T04:29:42;-0.30;99.90
42019;DHT22;27703;51.980;5.848;2022-11-20T04:32:07;-0.30;99.90
42019;DHT22;27703;51.980;5.848;2022-11-20T04:34:33;-0.30;99.90
42019;DHT22;27703;51.980;5.848;2022-11-20T04:36:58;-0.40;99.90
42019;DHT22;27703;51.980;5.848;2022-11-20T04:39:24;-0.40;99.90
42019;DHT22;27703;51.980;5.848;2022-11-20T04:41:49;-0.50;99.90
42019;DHT22;27703;51.980;5.848;2022-11-20T04:44:35;-0.50;99.90
42019;DHT22;27703;51.980;5.848;2022-11-20T04:47:00;-0.50;99.90
42019;DHT22;27703;51.980;5.848;2022-11-20T04:49:26;-0.60;99.90
42019;DHT22;27703;51.980;5.848;2022-11-20T04:51:54;-0.50;99.90
42019;DHT22;27703;51.980;5.848;2022-11-20T04:54:20;-0.50;99.90
42019;DHT22;27703;51.980;5.848;2022-11-20T04:56:47;-0.50;99.90
42019;DHT22;27703;51.980;5.848;2022-11-20T04:59:13;-0.50;99.90
42019;DHT22;27703;51.980;5.848;2022-11-20T05:01:39;-0.50;99.90
42019;DHT22;27703;51.980;5.848;2022-11-20T05:04:05;-0.50;99.90
42019;DHT22;27703;51.980;5.848;2022-11-20T05:06:31;-0.50;99.90
42019;DHT22;27703;51.980;5.848;2022-11-20T05:08:57;-0.50;99.90
42019;DHT22;27703;51.980;5.848;2022-11-20T05:11:23;-0.50;99.90
42019;DHT22;27703;51.980;5.848;2022-11-20T05:13:50;-0.40;99.90
42019;DHT22;27703;51.980;5.848;2022-11-20T05:16:18;-0.50;99.90
42019;DHT22;27703;51.980;5.848;2022-11-20T05:18:44;-0.50;99.90
42019;DHT22;27703;51.980;5.848;2022-11-20T05:21:11;-0.50;99.90
42019;DHT22;27703;51.980;5.848;2022-11-20T05:23:37;-0.50;99.90
42019;DHT22;27703;51.980;5.848;2022-11-20T05:26:04;-0.50;99.90
42019;DHT22;27703;51.980;5.848;2022-11-20T05:28:30;-0.50;99.90
42019;DHT22;27703;51.980;5.848;2022-11-20T05:31:03;-0.50;99.90
42019;DHT22;27703;51.980;5.848;2022-11-20T05:33:28;-0.50;99.90
42019;DHT22;27703;51.980;5.848;2022-11-20T05:35:58;-0.50;99.90
42019;DHT22;27703;51.980;5.848;2022-11-20T05:38:23;-0.60;99.90
42019;DHT22;27703;51.980;5.848;2022-11-20T05:40:49;-0.70;99.90
42019;DHT22;27703;51.980;5.848;2022-11-20T05:43:14;-0.70;99.90
42019;DHT22;27703;51.980;5.848;2022-11-20T05:45:40;-0.70;99.90
42019;DHT22;27703;51.980;5.848;2022-11-20T05:48:05;-0.70;99.90
42019;DHT22;27703;51.980;5.848;2022-11-20T05:50:31;-0.70;99.90
42019;DHT22;27703;51.980;5.848;2022-11-20T05:53:00;-0.70;99.90
42019;DHT22;27703;51.980;5.848;2022-11-20T05:55:28;-0.60;99.90
42019;DHT22;27703;51.980;5.848;2022-11-20T05:57:54;-0.50;99.90
42019;DHT22;27703;51.980;5.848;2022-11-20T06:00:20;-0.50;99.90
42019;DHT22;27703;51.980;5.848;2022-11-20T06:02:46;-0.50;99.90
42019;DHT22;27703;51.980;5.848;2022-11-20T06:05:11;-0.50;99.90
42019;DHT22;27703;51.980;5.848;2022-11-20T06:07:37;-0.60;99.90
42019;DHT22;27703;51.980;5.848;2022-11-20T06:10:03;-0.60;99.90
42019;DHT22;27703;51.980;5.848;2022-11-20T06:12:30;-0.50;99.90
42019;DHT22;27703;51.980;5.848;2022-11-20T06:14:56;-0.50;99.90
42019;DHT22;27703;51.980;5.848;2022-11-20T06:17:21;-0.50;99.90
42019;DHT22;27703;51.980;5.848;2022-11-20T06:19:47;-0.50;99.90
42019;DHT22;27703;51.980;5.848;2022-11-20T06:22:12;-0.50;99.90
42019;DHT22;27703;51.980;5.848;2022-11-20T06:24:38;-0.60;99.90
42019;DHT22;27703;51.980;5.848;2022-11-20T06:27:03;-0.60;99.90
42019;DHT22;27703;51.980;5.848;2022-11-20T06:29:29;-0.60;99.90
42019;DHT22;27703;51.980;5.848;2022-11-20T06:31:54;-0.60;99.90
42019;DHT22;27703;51.980;5.848;2022-11-20T06:34:20;-0.60;99.90
42019;DHT22;27703;51.980;5.848;2022-11-20T06:36:45;-0.60;99.90
42019;DHT22;27703;51.980;5.848;2022-11-20T06:39:11;-0.60;99.90
42019;DHT22;27703;51.980;5.848;2022-11-20T06:41:36;-0.60;99.90
42019;DHT22;27703;51.980;5.848;2022-11-20T06:44:04;-0.60;99.90
42019;DHT22;27703;51.980;5.848;2022-11-20T06:46:29;-0.70;99.90
42019;DHT22;27703;51.980;5.848;2022-11-20T06:48:55;-0.70;99.90
42019;DHT22;27703;51.980;5.848;2022-11-20T06:51:20;-0.80;99.90
42019;DHT22;27703;51.980;5.848;2022-11-20T06:53:46;-0.80;99.90
42019;DHT22;27703;51.980;5.848;2022-11-20T06:56:12;-0.90;99.90
42019;DHT22;27703;51.980;5.848;2022-11-20T06:58:38;-0.90;99.90
42019;DHT22;27703;51.980;5.848;2022-11-20T07:01:12;-0.90;99.90
42019;DHT22;27703;51.980;5.848;2022-11-20T07:03:38;-0.90;99.90
42019;DHT22;27703;51.980;5.848;2022-11-20T07:06:04;-0.90;99.90
42019;DHT22;27703;51.980;5.848;2022-11-20T07:08:30;-0.90;99.90
42019;DHT22;27703;51.980;5.848;2022-11-20T07:11:04;-0.90;99.90
42019;DHT22;27703;51.980;5.848;2022-11-20T07:13:30;-0.90;99.90
42019;DHT22;27703;51.980;5.848;2022-11-20T07:16:04;-0.90;99.90
42019;DHT22;27703;51.980;5.848;2022-11-20T07:18:30;-0.90;99.90
42019;DHT22;27703;51.980;5.848;2022-11-20T07:20:55;-0.90;99.90
42019;DHT22;27703;51.980;5.848;2022-11-20T07:23:21;-0.90;99.90
42019;DHT22;27703;51.980;5.848;2022-11-20T07:25:46;-0.80;99.90
42019;DHT22;27703;51.980;5.848;2022-11-20T07:28:13;-0.80;99.90
42019;DHT22;27703;51.980;5.848;2022-11-20T07:30:39;-0.80;99.90
42019;DHT22;27703;51.980;5.848;2022-11-20T07:33:04;-0.80;99.90
42019;DHT22;27703;51.980;5.848;2022-11-20T07:35:30;-0.70;99.90
42019;DHT22;27703;51.980;5.848;2022-11-20T07:37:55;-0.70;99.90
42019;DHT22;27703;51.980;5.848;2022-11-20T07:40:21;-0.70;99.90
42019;DHT22;27703;51.980;5.848;2022-11-20T07:42:54;-0.60;99.90
42019;DHT22;27703;51.980;5.848;2022-11-20T07:45:21;-0.50;99.90
42019;DHT22;27703;51.980;5.848;2022-11-20T07:47:47;-0.40;99.90
42019;DHT22;27703;51.980;5.848;2022-11-20T07:50:13;-0.30;99.90
42019;DHT22;27703;51.980;5.848;2022-11-20T07:52:39;-0.20;99.90
42019;DHT22;27703;51.980;5.848;2022-11-20T07:55:05;-0.10;99.90
42019;DHT22;27703;51.980;5.848;2022-11-20T07:57:31;-0.10;99.90
42019;DHT22;27703;51.980;5.848;2022-11-20T07:59:57;-0.10;99.90
42019;DHT22;27703;51.980;5.848;2022-11-20T08:02:23;0.00;99.90
42019;DHT22;27703;51.980;5.848;2022-11-20T08:04:49;0.00;99.90
42019;DHT22;27703;51.980;5.848;2022-11-20T08:07:14;0.00;99.90
42019;DHT22;27703;51.980;5.848;2022-11-20T08:09:40;0.10;99.90
42019;DHT22;27703;51.980;5.848;2022-11-20T08:12:05;0.10;99.90
42019;DHT22;27703;51.980;5.848;2022-11-20T08:14:50;0.20;99.90
42019;DHT22;27703;51.980;5.848;2022-11-20T08:17:15;0.30;99.90
42019;DHT22;27703;51.980;5.848;2022-11-20T08:19:41;0.30;99.90
42019;DHT22;27703;51.980;5.848;2022-11-20T08:22:06;0.40;99.90
42019;DHT22;27703;51.980;5.848;2022-11-20T08:24:32;0.40;99.90
42019;DHT22;27703;51.980;5.848;2022-11-20T08:26:58;0.50;99.90
42019;DHT22;27703;51.980;5.848;2022-11-20T08:29:26;0.40;99.90
42019;DHT22;27703;51.980;5.848;2022-11-20T08:31:51;0.40;99.90
42019;DHT22;27703;51.980;5.848;2022-11-20T08:34:17;0.50;99.90
42019;DHT22;27703;51.980;5.848;2022-11-20T08:36:43;0.50;99.90
42019;DHT22;27703;51.980;5.848;2022-11-20T08:39:11;0.50;99.90
42019;DHT22;27703;51.980;5.848;2022-11-20T08:41:37;0.60;99.90
42019;DHT22;27703;51.980;5.848;2022-11-20T08:44:05;0.60;99.90
42019;DHT22;27703;51.980;5.848;2022-11-20T08:46:41;0.60;99.90
42019;DHT22;27703;51.980;5.848;2022-11-20T08:49:10;0.70;99.90
42019;DHT22;27703;51.980;5.848;2022-11-20T08:51:37;0.80;99.90
42019;DHT22;27703;51.980;5.848;2022-11-20T08:54:03;0.90;99.90
42019;DHT22;27703;51.980;5.848;2022-11-20T08:56:29;1.00;99.90
42019;DHT22;27703;51.980;5.848;2022-11-20T08:58:55;1.10;99.90
42019;DHT22;27703;51.980;5.848;2022-11-20T09:01:22;1.10;99.90
42019;DHT22;27703;51.980;5.848;2022-11-20T09:03:48;0.90;99.90
42019;DHT22;27703;51.980;5.848;2022-11-20T09:06:14;0.80;99.90
42019;DHT22;27703;51.980;5.848;2022-11-20T09:08:40;0.90;99.90
42019;DHT22;27703;51.980;5.848;2022-11-20T09:11:06;0.90;99.90
42019;DHT22;27703;51.980;5.848;2022-11-20T09:13:33;0.90;99.90
42019;DHT22;27703;51.980;5.848;2022-11-20T09:16:07;1.00;99.90
42019;DHT22;27703;51.980;5.848;2022-11-20T09:18:33;1.00;99.90
42019;DHT22;27703;51.980;5.848;2022-11-20T09:21:03;1.00;99.90
42019;DHT22;27703;51.980;5.848;2022-11-20T09:23:34;1.00;99.90
42019;DHT22;27703;51.980;5.848;2022-11-20T09:26:10;1.10;99.90
42019;DHT22;27703;51.980;5.848;2022-11-20T09:28:36;1.10;99.90
42019;DHT22;27703;51.980;5.848;2022-11-20T09:31:17;1.20;99.90
42019;DHT22;27703;51.980;5.848;2022-11-20T09:33:44;1.20;99.90
42019;DHT22;27703;51.980;5.848;2022-11-20T09:36:10;1.10;99.90
42019;DHT22;27703;51.980;5.848;2022-11-20T09:38:35;1.00;99.90
42019;DHT22;27703;51.980;5.848;2022-11-20T09:41:06;1.00;99.90
42019;DHT22;27703;51.980;5.848;2022-11-20T09:46:04;1.10;99.90
42019;DHT22;27703;51.980;5.848;2022-11-20T09:56:22;1.40;99.90
42019;DHT22;27703;51.980;5.848;2022-11-20T09:58:50;1.40;99.90
42019;DHT22;27703;51.980;5.848;2022-11-20T10:01:30;1.40;99.90
42019;DHT22;27703;51.980;5.848;2022-11-20T10:04:15;1.50;99.90
42019;DHT22;27703;51.980;5.848;2022-11-20T10:09:35;1.50;99.90
42019;DHT22;27703;51.980;5.848;2022-11-20T10:12:19;1.70;99.90
42019;DHT22;27703;51.980;5.848;2022-11-20T10:14:54;1.60;99.90
42019;DHT22;27703;51.980;5.848;2022-11-20T10:17:33;1.60;99.90
42019;DHT22;27703;51.980;5.848;2022-11-20T10:20:21;1.60;99.90
42019;DHT22;27703;51.980;5.848;2022-11-20T10:25:56;1.60;99.90
42019;DHT22;27703;51.980;5.848;2022-11-20T10:28:35;1.70;99.90
42019;DHT22;27703;51.980;5.848;2022-11-20T10:31:07;1.70;99.90
42019;DHT22;27703;51.980;5.848;2022-11-20T10:33:38;1.80;99.90
42019;DHT22;27703;51.980;5.848;2022-11-20T10:36:16;1.90;99.90
42019;DHT22;27703;51.980;5.848;2022-11-20T10:38:48;2.00;99.90
42019;DHT22;27703;51.980;5.848;2022-11-20T10:41:40;2.10;99.90
42019;DHT22;27703;51.980;5.848;2022-11-20T10:44:16;2.10;99.90
42019;DHT22;27703;51.980;5.848;2022-11-20T10:47:02;2.20;99.90
42019;DHT22;27703;51.980;5.848;2022-11-20T10:49:29;2.30;99.90
42019;DHT22;27703;51.980;5.848;2022-11-20T10:52:08;2.30;99.90
42019;DHT22;27703;51.980;5.848;2022-11-20T10:54:47;2.30;99.90
42019;DHT22;27703;51.980;5.848;2022-11-20T11:00:12;2.30;99.90
42019;DHT22;27703;51.980;5.848;2022-11-20T11:07:58;2.30;99.90
42019;DHT22;27703;51.980;5.848;2022-11-20T11:13:28;2.40;99.90
42019;DHT22;27703;51.980;5.848;2022-11-20T11:15:53;2.50;99.90
42019;DHT22;27703;51.980;5.848;2022-11-20T11:18:27;2.50;99.90
42019;DHT22;27703;51.980;5.848;2022-11-20T11:20:56;2.60;99.90
42019;DHT22;27703;51.980;5.848;2022-11-20T11:23:41;2.70;99.90
42019;DHT22;27703;51.980;5.848;2022-11-20T11:26:19;2.70;99.90
42019;DHT22;27703;51.980;5.848;2022-11-20T11:28:59;2.80;99.90
42019;DHT22;27703;51.980;5.848;2022-11-20T11:31:28;2.80;99.90
42019;DHT22;27703;51.980;5.848;2022-11-20T11:34:26;2.90;99.90
42019;DHT22;27703;51.980;5.848;2022-11-20T11:37:02;2.90;99.90
42019;DHT22;27703;51.980;5.848;2022-11-20T11:39:29;3.00;99.90
42019;DHT22;27703;51.980;5.848;2022-11-20T11:41:57;3.00;99.90
42019;DHT22;27703;51.980;5.848;2022-11-20T11:44:28;3.10;99.90
42019;DHT22;27703;51.980;5.848;2022-11-20T11:47:43;3.10;99.90
42019;DHT22;27703;51.980;5.848;2022-11-20T11:53:19;3.10;99.90
42019;DHT22;27703;51.980;5.848;2022-11-20T11:56:06;3.10;99.90
42019;DHT22;27703;51.980;5.848;2022-11-20T11:58:46;3.10;99.90
42019;DHT22;27703;51.980;5.848;2022-11-20T12:01:32;3.10;99.90
42019;DHT22;27703;51.980;5.848;2022-11-20T12:06:29;3.10;99.90
42019;DHT22;27703;51.980;5.848;2022-11-20T12:09:01;3.00;99.90
42019;DHT22;27703;51.980;5.848;2022-11-20T12:11:40;3.00;99.90
42019;DHT22;27703;51.980;5.848;2022-11-20T12:14:17;3.00;99.90
42019;DHT22;27703;51.980;5.848;2022-11-20T12:16:45;3.00;99.90
42019;DHT22;27703;51.980;5.848;2022-11-20T12:19:12;3.00;99.90
42019;DHT22;27703;51.980;5.848;2022-11-20T12:24:59;3.10;99.90
42019;DHT22;27703;51.980;5.848;2022-11-20T12:27:48;3.10;99.90
42019;DHT22;27703;51.980;5.848;2022-11-20T12:30:19;3.10;99.90
42019;DHT22;27703;51.980;5.848;2022-11-20T12:33:06;3.10;99.90
42019;DHT22;27703;51.980;5.848;2022-11-20T12:44:21;3.20;99.90
42019;DHT22;27703;51.980;5.848;2022-11-20T12:47:39;3.20;99.90
42019;DHT22;27703;51.980;5.848;2022-11-20T13:05:29;3.30;99.90
42019;DHT22;27703;51.980;5.848;2022-11-20T13:07:56;3.30;99.90
42019;DHT22;27703;51.980;5.848;2022-11-20T13:12:57;3.20;99.90
42019;DHT22;27703;51.980;5.848;2022-11-20T13:15:55;3.20;99.90
42019;DHT22;27703;51.980;5.848;2022-11-20T13:18:24;3.20;99.90
42019;DHT22;27703;51.980;5.848;2022-11-20T13:20:49;3.20;99.90
42019;DHT22;27703;51.980;5.848;2022-11-20T13:23:26;3.20;99.90
42019;DHT22;27703;51.980;5.848;2022-11-20T13:26:14;3.20;99.90
42019;DHT22;27703;51.980;5.848;2022-11-20T13:28:40;3.20;99.90
42019;DHT22;27703;51.980;5.848;2022-11-20T13:31:23;3.20;99.90
42019;DHT22;27703;51.980;5.848;2022-11-20T13:33:51;3.20;99.90
42019;DHT22;27703;51.980;5.848;2022-11-20T13:36:25;3.20;99.90
42019;DHT22;27703;51.980;5.848;2022-11-20T13:38:53;3.20;99.90
42019;DHT22;27703;51.980;5.848;2022-11-20T13:41:28;3.30;99.90
42019;DHT22;27703;51.980;5.848;2022-11-20T13:44:06;3.20;99.90
42019;DHT22;27703;51.980;5.848;2022-11-20T13:49:09;3.30;99.90
42019;DHT22;27703;51.980;5.848;2022-11-20T13:51:43;3.30;99.90
42019;DHT22;27703;51.980;5.848;2022-11-20T13:59:56;3.30;99.90
42019;DHT22;27703;51.980;5.848;2022-11-20T14:02:25;3.30;99.90
42019;DHT22;27703;51.980;5.848;2022-11-20T14:04:53;3.30;99.90
42019;DHT22;27703;51.980;5.848;2022-11-20T14:07:25;3.30;99.90
42019;DHT22;27703;51.980;5.848;2022-11-20T14:09:53;3.30;99.90
42019;DHT22;27703;51.980;5.848;2022-11-20T14:12:22;3.30;99.90
42019;DHT22;27703;51.980;5.848;2022-11-20T14:14:50;3.30;99.90
42019;DHT22;27703;51.980;5.848;2022-11-20T14:17:21;3.30;99.90
42019;DHT22;27703;51.980;5.848;2022-11-20T14:19:50;3.30;99.90
42019;DHT22;27703;51.980;5.848;2022-11-20T14:25:32;3.30;99.90
42019;DHT22;27703;51.980;5.848;2022-11-20T14:27:37;3.30;99.90
42019;DHT22;27703;51.980;5.848;2022-11-20T14:30:04;3.30;99.90
42019;DHT22;27703;51.980;5.848;2022-11-20T14:32:31;3.20;99.90
42019;DHT22;27703;51.980;5.848;2022-11-20T14:35:06;3.30;99.90
42019;DHT22;27703;51.980;5.848;2022-11-20T14:37:36;3.30;99.90
42019;DHT22;27703;51.980;5.848;2022-11-20T14:40:02;3.30;99.90
42019;DHT22;27703;51.980;5.848;2022-11-20T14:42:28;3.30;99.90
42019;DHT22;27703;51.980;5.848;2022-11-20T14:44:57;3.30;99.90
42019;DHT22;27703;51.980;5.848;2022-11-20T14:47:26;3.30;99.90
42019;DHT22;27703;51.980;5.848;2022-11-20T14:49:53;3.40;99.90
42019;DHT22;27703;51.980;5.848;2022-11-20T14:52:24;3.30;99.90
42019;DHT22;27703;51.980;5.848;2022-11-20T14:54:52;3.40;99.90
42019;DHT22;27703;51.980;5.848;2022-11-20T14:57:27;3.40;99.90
42019;DHT22;27703;51.980;5.848;2022-11-20T15:02:32;3.40;99.90
42019;DHT22;27703;51.980;5.848;2022-11-20T15:04:59;3.40;99.90
42019;DHT22;27703;51.980;5.848;2022-11-20T15:07:26;3.40;99.90
42019;DHT22;27703;51.980;5.848;2022-11-20T15:10:10;3.40;99.90
42019;DHT22;27703;51.980;5.848;2022-11-20T15:15:16;3.40;99.90
42019;DHT22;27703;51.980;5.848;2022-11-20T15:17:43;3.40;99.90
42019;DHT22;27703;51.980;5.848;2022-11-20T15:20:13;3.40;99.90
42019;DHT22;27703;51.980;5.848;2022-11-20T15:22:39;3.40;99.90
42019;DHT22;27703;51.980;5.848;2022-11-20T15:25:15;3.40;99.90
42019;DHT22;27703;51.980;5.848;2022-11-20T15:27:42;3.40;99.90
42019;DHT22;27703;51.980;5.848;2022-11-20T15:30:16;3.50;99.90
42019;DHT22;27703;51.980;5.848;2022-11-20T15:32:42;3.50;99.90
42019;DHT22;27703;51.980;5.848;2022-11-20T15:35:08;3.50;99.90
42019;DHT22;27703;51.980;5.848;2022-11-20T15:37:35;3.50;99.90
42019;DHT22;27703;51.980;5.848;2022-11-20T15:40:00;3.50;99.90
42019;DHT22;27703;51.980;5.848;2022-11-20T15:42:29;3.50;99.90
42019;DHT22;27703;51.980;5.848;2022-11-20T15:44:54;3.50;99.90
42019;DHT22;27703;51.980;5.848;2022-11-20T15:47:28;3.60;99.90
42019;DHT22;27703;51.980;5.848;2022-11-20T15:49:55;3.60;99.90
42019;DHT22;27703;51.980;5.848;2022-11-20T15:52:20;3.50;99.90
42019;DHT22;27703;51.980;5.848;2022-11-20T15:54:46;3.60;99.90
42019;DHT22;27703;51.980;5.848;2022-11-20T15:57:12;3.60;99.90
42019;DHT22;27703;51.980;5.848;2022-11-20T15:59:38;3.60;99.90
42019;DHT22;27703;51.980;5.848;2022-11-20T16:02:11;3.60;99.90
42019;DHT22;27703;51.980;5.848;2022-11-20T16:04:36;3.50;99.90
42019;DHT22;27703;51.980;5.848;2022-11-20T16:07:02;3.60;99.90
42019;DHT22;27703;51.980;5.848;2022-11-20T16:09:27;3.50;99.90
42019;DHT22;27703;51.980;5.848;2022-11-20T16:11:53;3.50;99.90
42019;DHT22;27703;51.980;5.848;2022-11-20T16:14:19;3.60;99.90
42019;DHT22;27703;51.980;5.848;2022-11-20T16:17:03;3.50;99.90
42019;DHT22;27703;51.980;5.848;2022-11-20T16:19:29;3.50;99.90
42019;DHT22;27703;51.980;5.848;2022-11-20T16:21:54;3.50;99.90
42019;DHT22;27703;51.980;5.848;2022-11-20T16:24:20;3.50;99.90
42019;DHT22;27703;51.980;5.848;2022-11-20T16:26:45;3.50;99.90
42019;DHT22;27703;51.980;5.848;2022-11-20T16:29:11;3.50;99.90
42019;DHT22;27703;51.980;5.848;2022-11-20T16:31:37;3.50;99.90
42019;DHT22;27703;51.980;5.848;2022-11-20T16:34:05;3.60;99.90
42019;DHT22;27703;51.980;5.848;2022-11-20T16:36:32;3.60;99.90
42019;DHT22;27703;51.980;5.848;2022-11-20T16:38:59;3.60;99.90
42019;DHT22;27703;51.980;5.848;2022-11-20T16:41:27;3.60;99.90
42019;DHT22;27703;51.980;5.848;2022-11-20T16:43:54;3.60;99.90
42019;DHT22;27703;51.980;5.848;2022-11-20T16:46:23;3.60;99.90
42019;DHT22;27703;51.980;5.848;2022-11-20T16:49:12;3.60;99.90
42019;DHT22;27703;51.980;5.848;2022-11-20T16:51:37;3.60;99.90
42019;DHT22;27703;51.980;5.848;2022-11-20T16:54:08;3.60;99.90
42019;DHT22;27703;51.980;5.848;2022-11-20T16:56:34;3.60;99.90
42019;DHT22;27703;51.980;5.848;2022-11-20T16:59:00;3.60;99.90
42019;DHT22;27703;51.980;5.848;2022-11-20T17:01:28;3.60;99.90
42019;DHT22;27703;51.980;5.848;2022-11-20T17:03:56;3.60;99.90
42019;DHT22;27703;51.980;5.848;2022-11-20T17:06:24;3.70;99.90
42019;DHT22;27703;51.980;5.848;2022-11-20T17:08:50;3.70;99.90
42019;DHT22;27703;51.980;5.848;2022-11-20T17:11:18;3.70;99.90
42019;DHT22;27703;51.980;5.848;2022-11-20T17:13:44;3.70;99.90
42019;DHT22;27703;51.980;5.848;2022-11-20T17:16:12;3.70;99.90
42019;DHT22;27703;51.980;5.848;2022-11-20T17:18:38;3.70;99.90
42019;DHT22;27703;51.980;5.848;2022-11-20T17:21:05;3.70;99.90
42019;DHT22;27703;51.980;5.848;2022-11-20T17:23:33;3.70;99.90